sensor_id;sensor_type;location;lat;lon;timestamp;P1;durP1;ratioP1;P2;durP2;ratioP2
20122;SDS011;10222;50.848;4.336;2023-04-23T00:00:20;14.43;;;8.20;;
20122;SDS011;10222;50.848;4.336;2023-04-23T00:02:47;16.10;;;9.50;;
20122;SDS011;10222;50.848;4.336;2023-04-23T00:07:47;18.37;;;8.73;;
20122;SDS011;10222;50.848;4.336;2023-04-23T00:10:13;17.10;;;9.33;;
20122;SDS011;10222;50.848;4.336;2023-04-23T00:12:39;14.03;;;9.13;;
20122;SDS011;10222;50.848;4.336;2023-04-23T00:15:06;14.07;;;8.40;;
20122;SDS011;10222;50.848;4.336;2023-04-23T00:17:33;13.90;;;8.13;;
20122;SDS011;10222;50.848;4.336;2023-04-23T00:20:00;14.93;;;8.17;;
20122;SDS011;10222;50.848;4.336;2023-04-23T00:22:26;15.43;;;8.13;;
20122;SDS011;10222;50.848;4.336;2023-04-23T00:24:52;14.10;;;8.10;;
20122;SDS011;10222;50.848;4.336;2023-04-23T00:27:18;14.87;;;7.93;;
20122;SDS011;10222;50.848;4.336;2023-04-23T00:29:45;15.37;;;8.57;;
20122;SDS011;10222;50.848;4.336;2023-04-23T00:32:11;18.60;;;8.57;;
20122;SDS011;10222;50.848;4.336;2023-04-23T00:34:39;14.00;;;7.40;;
20122;SDS011;10222;50.848;4.336;2023-04-23T00:37:06;13.53;;;7.40;;
20122;SDS011;10222;50.848;4.336;2023-04-23T00:39:32;14.60;;;7.70;;
20122;SDS011;10222;50.848;4.336;2023-04-23T00:41:59;11.63;;;6.97;;
20122;SDS011;10222;50.848;4.336;2023-04-23T00:44:32;11.60;;;8.03;;
20122;SDS011;10222;50.848;4.336;2023-04-23T00:46:58;10.60;;;6.73;;
20122;SDS011;10222;50.848;4.336;2023-04-23T00:49:24;10.20;;;6.60;;
20122;SDS011;10222;50.848;4.336;2023-04-23T00:51:50;15.10;;;7.60;;
20122;SDS011;10222;50.848;4.336;2023-04-23T00:54:16;11.17;;;6.97;;
20122;SDS011;10222;50.848;4.336;2023-04-23T00:56:43;14.40;;;7.90;;
20122;SDS011;10222;50.848;4.336;2023-04-23T00:59:09;9.77;;;6.40;;
20122;SDS011;10222;50.848;4.336;2023-04-23T01:01:35;12.60;;;7.27;;
20122;SDS011;10222;50.848;4.336;2023-04-23T01:04:01;13.33;;;6.57;;
20122;SDS011;10222;50.848;4.336;2023-04-23T01:06:28;9.93;;;6.00;;
20122;SDS011;10222;50.848;4.336;2023-04-23T01:08:55;8.33;;;5.67;;
20122;SDS011;10222;50.848;4.336;2023-04-23T01:11:22;13.83;;;6.80;;
20122;SDS011;10222;50.848;4.336;2023-04-23T01:13:48;9.87;;;5.97;;
20122;SDS011;10222;50.848;4.336;2023-04-23T01:16:15;10.43;;;5.87;;
20122;SDS011;10222;50.848;4.336;2023-04-23T01:18:41;12.30;;;6.50;;
20122;SDS011;10222;50.848;4.336;2023-04-23T01:21:09;9.10;;;5.67;;
20122;SDS011;10222;50.848;4.336;2023-04-23T01:23:36;10.20;;;5.37;;
20122;SDS011;10222;50.848;4.336;2023-04-23T01:26:02;10.27;;;6.13;;
20122;SDS011;10222;50.848;4.336;2023-04-23T01:28:28;9.77;;;5.70;;
20122;SDS011;10222;50.848;4.336;2023-04-23T01:30:54;9.70;;;5.43;;
20122;SDS011;10222;50.848;4.336;2023-04-23T01:33:21;8.70;;;5.40;;
20122;SDS011;10222;50.848;4.336;2023-04-23T01:35:47;9.67;;;5.47;;
20122;SDS011;10222;50.848;4.336;2023-04-23T01:38:13;10.47;;;5.37;;
20122;SDS011;10222;50.848;4.336;2023-04-23T01:40:40;9.00;;;5.20;;
20122;SDS011;10222;50.848;4.336;2023-04-23T01:43:07;8.00;;;5.10;;
20122;SDS011;10222;50.848;4.336;2023-04-23T01:45:33;10.80;;;5.33;;
20122;SDS011;10222;50.848;4.336;2023-04-23T01:48:01;9.97;;;5.00;;
20122;SDS011;10222;50.848;4.336;2023-04-23T01:50:27;8.87;;;5.63;;
20122;SDS011;10222;50.848;4.336;2023-04-23T01:52:54;8.53;;;5.10;;
20122;SDS011;10222;50.848;4.336;2023-04-23T01:55:20;8.70;;;5.13;;
20122;SDS011;10222;50.848;4.336;2023-04-23T01:57:47;8.00;;;5.20;;
20122;SDS011;10222;50.848;4.336;2023-04-23T02:00:15;7.33;;;4.60;;
20122;SDS011;10222;50.848;4.336;2023-04-23T02:02:42;8.63;;;5.13;;
20122;SDS011;10222;50.848;4.336;2023-04-23T02:05:10;9.73;;;4.97;;
20122;SDS011;10222;50.848;4.336;2023-04-23T02:07:36;7.93;;;4.57;;
20122;SDS011;10222;50.848;4.336;2023-04-23T02:10:03;8.73;;;5.07;;
20122;SDS011;10222;50.848;4.336;2023-04-23T02:12:29;8.27;;;5.50;;
20122;SDS011;10222;50.848;4.336;2023-04-23T02:14:55;8.07;;;5.07;;
20122;SDS011;10222;50.848;4.336;2023-04-23T02:17:21;7.50;;;4.83;;
20122;SDS011;10222;50.848;4.336;2023-04-23T02:19:48;7.20;;;5.03;;
20122;SDS011;10222;50.848;4.336;2023-04-23T02:22:15;10.20;;;5.20;;
20122;SDS011;10222;50.848;4.336;2023-04-23T02:24:41;9.83;;;5.50;;
20122;SDS011;10222;50.848;4.336;2023-04-23T02:27:08;7.83;;;4.70;;
20122;SDS011;10222;50.848;4.336;2023-04-23T02:29:35;9.70;;;6.13;;
20122;SDS011;10222;50.848;4.336;2023-04-23T02:32:04;10.33;;;5.03;;
20122;SDS011;10222;50.848;4.336;2023-04-23T02:34:30;6.83;;;4.70;;
20122;SDS011;10222;50.848;4.336;2023-04-23T02:36:56;6.80;;;4.10;;
20122;SDS011;10222;50.848;4.336;2023-04-23T02:39:22;11.03;;;4.53;;
20122;SDS011;10222;50.848;4.336;2023-04-23T02:41:48;6.70;;;4.00;;
20122;SDS011;10222;50.848;4.336;2023-04-23T02:44:14;6.73;;;3.83;;
20122;SDS011;10222;50.848;4.336;2023-04-23T02:46:40;5.77;;;3.83;;
20122;SDS011;10222;50.848;4.336;2023-04-23T02:49:06;7.13;;;4.23;;
20122;SDS011;10222;50.848;4.336;2023-04-23T02:51:33;7.97;;;3.63;;
20122;SDS011;10222;50.848;4.336;2023-04-23T02:53:59;5.47;;;3.70;;
20122;SDS011;10222;50.848;4.336;2023-04-23T02:56:25;7.10;;;3.77;;
20122;SDS011;10222;50.848;4.336;2023-04-23T02:58:51;7.90;;;4.37;;
20122;SDS011;10222;50.848;4.336;2023-04-23T03:01:17;7.57;;;4.77;;
20122;SDS011;10222;50.848;4.336;2023-04-23T03:03:44;7.40;;;4.67;;
20122;SDS011;10222;50.848;4.336;2023-04-23T03:06:10;9.20;;;4.90;;
20122;SDS011;10222;50.848;4.336;2023-04-23T03:08:36;7.40;;;4.60;;
20122;SDS011;10222;50.848;4.336;2023-04-23T03:11:02;6.40;;;3.83;;
20122;SDS011;10222;50.848;4.336;2023-04-23T03:13:29;8.67;;;5.03;;
20122;SDS011;10222;50.848;4.336;2023-04-23T03:15:55;8.00;;;4.70;;
20122;SDS011;10222;50.848;4.336;2023-04-23T03:18:22;9.23;;;4.63;;
20122;SDS011;10222;50.848;4.336;2023-04-23T03:20:48;8.47;;;5.67;;
20122;SDS011;10222;50.848;4.336;2023-04-23T03:23:14;7.33;;;4.43;;
20122;SDS011;10222;50.848;4.336;2023-04-23T03:25:40;8.83;;;4.70;;
20122;SDS011;10222;50.848;4.336;2023-04-23T03:28:06;8.43;;;4.33;;
20122;SDS011;10222;50.848;4.336;2023-04-23T03:30:32;6.43;;;3.97;;
20122;SDS011;10222;50.848;4.336;2023-04-23T03:33:02;9.83;;;5.50;;
20122;SDS011;10222;50.848;4.336;2023-04-23T03:35:28;6.30;;;4.20;;
20122;SDS011;10222;50.848;4.336;2023-04-23T03:37:55;11.47;;;5.77;;
20122;SDS011;10222;50.848;4.336;2023-04-23T03:40:21;7.53;;;5.03;;
20122;SDS011;10222;50.848;4.336;2023-04-23T03:42:47;6.13;;;4.63;;
20122;SDS011;10222;50.848;4.336;2023-04-23T03:45:14;7.43;;;5.07;;
20122;SDS011;10222;50.848;4.336;2023-04-23T03:47:41;7.60;;;4.83;;
20122;SDS011;10222;50.848;4.336;2023-04-23T03:50:07;10.00;;;5.40;;
20122;SDS011;10222;50.848;4.336;2023-04-23T03:52:34;6.70;;;4.37;;
20122;SDS011;10222;50.848;4.336;2023-04-23T03:55:00;7.13;;;4.17;;
20122;SDS011;10222;50.848;4.336;2023-04-23T03:57:27;9.67;;;4.77;;
20122;SDS011;10222;50.848;4.336;2023-04-23T03:59:53;6.20;;;4.33;;
20122;SDS011;10222;50.848;4.336;2023-04-23T04:02:19;7.50;;;4.70;;
20122;SDS011;10222;50.848;4.336;2023-04-23T04:04:45;7.83;;;4.70;;
20122;SDS011;10222;50.848;4.336;2023-04-23T04:07:13;8.80;;;4.73;;
20122;SDS011;10222;50.848;4.336;2023-04-23T04:09:40;6.10;;;4.23;;
20122;SDS011;10222;50.848;4.336;2023-04-23T04:12:06;7.17;;;4.23;;
20122;SDS011;10222;50.848;4.336;2023-04-23T04:14:32;5.80;;;3.87;;
20122;SDS011;10222;50.848;4.336;2023-04-23T04:16:58;8.90;;;4.20;;
20122;SDS011;10222;50.848;4.336;2023-04-23T04:21:54;7.20;;;4.40;;
20122;SDS011;10222;50.848;4.336;2023-04-23T04:24:20;7.50;;;4.00;;
20122;SDS011;10222;50.848;4.336;2023-04-23T04:26:47;9.90;;;4.27;;
20122;SDS011;10222;50.848;4.336;2023-04-23T04:29:13;9.53;;;4.33;;
20122;SDS011;10222;50.848;4.336;2023-04-23T04:31:39;6.93;;;4.07;;
20122;SDS011;10222;50.848;4.336;2023-04-23T04:34:05;7.27;;;4.20;;
20122;SDS011;10222;50.848;4.336;2023-04-23T04:36:33;6.30;;;3.97;;
20122;SDS011;10222;50.848;4.336;2023-04-23T04:38:59;7.17;;;4.47;;
20122;SDS011;10222;50.848;4.336;2023-04-23T04:41:27;7.27;;;4.50;;
20122;SDS011;10222;50.848;4.336;2023-04-23T04:43:53;5.93;;;3.33;;
20122;SDS011;10222;50.848;4.336;2023-04-23T04:46:20;5.37;;;3.83;;
20122;SDS011;10222;50.848;4.336;2023-04-23T04:48:46;5.00;;;3.43;;
20122;SDS011;10222;50.848;4.336;2023-04-23T04:51:12;6.83;;;3.83;;
20122;SDS011;10222;50.848;4.336;2023-04-23T04:53:38;8.30;;;3.90;;
20122;SDS011;10222;50.848;4.336;2023-04-23T04:56:04;6.90;;;3.87;;
20122;SDS011;10222;50.848;4.336;2023-04-23T04:58:32;5.70;;;2.93;;
20122;SDS011;10222;50.848;4.336;2023-04-23T05:00:58;6.17;;;3.57;;
20122;SDS011;10222;50.848;4.336;2023-04-23T05:03:25;8.03;;;3.50;;
20122;SDS011;10222;50.848;4.336;2023-04-23T05:05:52;5.93;;;3.80;;
20122;SDS011;10222;50.848;4.336;2023-04-23T05:08:22;7.20;;;3.27;;
20122;SDS011;10222;50.848;4.336;2023-04-23T05:10:48;5.27;;;3.27;;
20122;SDS011;10222;50.848;4.336;2023-04-23T05:13:15;6.57;;;3.00;;
20122;SDS011;10222;50.848;4.336;2023-04-23T05:15:41;8.20;;;3.20;;
20122;SDS011;10222;50.848;4.336;2023-04-23T05:18:08;4.80;;;2.70;;
20122;SDS011;10222;50.848;4.336;2023-04-23T05:20:35;6.07;;;2.93;;
20122;SDS011;10222;50.848;4.336;2023-04-23T05:23:01;5.87;;;3.10;;
20122;SDS011;10222;50.848;4.336;2023-04-23T05:25:30;5.73;;;2.90;;
20122;SDS011;10222;50.848;4.336;2023-04-23T05:27:56;8.83;;;4.17;;
20122;SDS011;10222;50.848;4.336;2023-04-23T05:30:22;6.70;;;3.20;;
20122;SDS011;10222;50.848;4.336;2023-04-23T05:32:48;6.60;;;2.83;;
20122;SDS011;10222;50.848;4.336;2023-04-23T05:35:15;4.97;;;3.00;;
20122;SDS011;10222;50.848;4.336;2023-04-23T05:37:41;4.30;;;2.70;;
20122;SDS011;10222;50.848;4.336;2023-04-23T05:40:07;6.97;;;2.80;;
20122;SDS011;10222;50.848;4.336;2023-04-23T05:42:34;6.37;;;3.00;;
20122;SDS011;10222;50.848;4.336;2023-04-23T05:45:00;6.90;;;2.30;;
20122;SDS011;10222;50.848;4.336;2023-04-23T05:47:27;7.07;;;2.77;;
20122;SDS011;10222;50.848;4.336;2023-04-23T05:49:53;4.33;;;2.57;;
20122;SDS011;10222;50.848;4.336;2023-04-23T05:52:23;5.87;;;2.63;;
20122;SDS011;10222;50.848;4.336;2023-04-23T05:54:50;6.53;;;2.47;;
20122;SDS011;10222;50.848;4.336;2023-04-23T05:57:16;5.00;;;2.17;;
20122;SDS011;10222;50.848;4.336;2023-04-23T05:59:42;8.07;;;2.87;;
20122;SDS011;10222;50.848;4.336;2023-04-23T06:02:09;6.87;;;2.17;;
20122;SDS011;10222;50.848;4.336;2023-04-23T06:04:36;5.77;;;2.43;;
20122;SDS011;10222;50.848;4.336;2023-04-23T06:07:03;4.13;;;2.13;;
20122;SDS011;10222;50.848;4.336;2023-04-23T06:09:29;4.17;;;2.17;;
20122;SDS011;10222;50.848;4.336;2023-04-23T06:11:55;4.33;;;1.97;;
20122;SDS011;10222;50.848;4.336;2023-04-23T06:14:21;4.40;;;2.10;;
20122;SDS011;10222;50.848;4.336;2023-04-23T06:16:47;4.83;;;2.03;;
20122;SDS011;10222;50.848;4.336;2023-04-23T06:19:14;6.03;;;1.77;;
20122;SDS011;10222;50.848;4.336;2023-04-23T06:21:40;4.40;;;1.90;;
20122;SDS011;10222;50.848;4.336;2023-04-23T06:24:06;5.63;;;2.07;;
20122;SDS011;10222;50.848;4.336;2023-04-23T06:26:32;6.07;;;2.17;;
20122;SDS011;10222;50.848;4.336;2023-04-23T06:29:00;4.23;;;1.90;;
20122;SDS011;10222;50.848;4.336;2023-04-23T06:31:26;4.37;;;2.00;;
20122;SDS011;10222;50.848;4.336;2023-04-23T06:33:52;5.53;;;2.00;;
20122;SDS011;10222;50.848;4.336;2023-04-23T06:36:19;3.83;;;1.67;;
20122;SDS011;10222;50.848;4.336;2023-04-23T06:38:45;2.57;;;1.33;;
20122;SDS011;10222;50.848;4.336;2023-04-23T06:41:11;6.23;;;1.70;;
20122;SDS011;10222;50.848;4.336;2023-04-23T06:43:37;2.63;;;1.70;;
20122;SDS011;10222;50.848;4.336;2023-04-23T06:46:03;2.90;;;1.53;;
20122;SDS011;10222;50.848;4.336;2023-04-23T06:48:29;3.53;;;1.30;;
20122;SDS011;10222;50.848;4.336;2023-04-23T06:50:56;4.77;;;1.77;;
20122;SDS011;10222;50.848;4.336;2023-04-23T06:53:22;5.63;;;2.03;;
20122;SDS011;10222;50.848;4.336;2023-04-23T06:55:48;4.57;;;1.40;;
20122;SDS011;10222;50.848;4.336;2023-04-23T06:58:15;4.73;;;1.97;;
20122;SDS011;10222;50.848;4.336;2023-04-23T07:00:42;2.03;;;1.20;;
20122;SDS011;10222;50.848;4.336;2023-04-23T07:03:08;4.17;;;1.57;;
20122;SDS011;10222;50.848;4.336;2023-04-23T07:05:34;5.40;;;1.73;;
20122;SDS011;10222;50.848;4.336;2023-04-23T07:08:02;2.83;;;1.70;;
20122;SDS011;10222;50.848;4.336;2023-04-23T07:10:28;3.13;;;1.90;;
20122;SDS011;10222;50.848;4.336;2023-04-23T07:12:54;4.67;;;1.70;;
20122;SDS011;10222;50.848;4.336;2023-04-23T07:15:21;6.17;;;1.63;;
20122;SDS011;10222;50.848;4.336;2023-04-23T07:17:48;2.97;;;1.93;;
20122;SDS011;10222;50.848;4.336;2023-04-23T07:20:14;5.10;;;1.70;;
20122;SDS011;10222;50.848;4.336;2023-04-23T07:22:40;3.90;;;1.43;;
20122;SDS011;10222;50.848;4.336;2023-04-23T07:25:08;4.53;;;1.83;;
20122;SDS011;10222;50.848;4.336;2023-04-23T07:27:34;5.10;;;1.57;;
20122;SDS011;10222;50.848;4.336;2023-04-23T07:30:01;3.30;;;1.57;;
20122;SDS011;10222;50.848;4.336;2023-04-23T07:32:27;2.77;;;1.20;;
20122;SDS011;10222;50.848;4.336;2023-04-23T07:34:53;1.70;;;1.27;;
20122;SDS011;10222;50.848;4.336;2023-04-23T07:37:24;4.67;;;1.20;;
20122;SDS011;10222;50.848;4.336;2023-04-23T07:39:50;3.03;;;1.30;;
20122;SDS011;10222;50.848;4.336;2023-04-23T07:42:18;7.93;;;1.60;;
20122;SDS011;10222;50.848;4.336;2023-04-23T07:44:44;3.33;;;1.40;;
20122;SDS011;10222;50.848;4.336;2023-04-23T07:47:10;7.80;;;1.43;;
20122;SDS011;10222;50.848;4.336;2023-04-23T07:49:37;4.97;;;1.70;;
20122;SDS011;10222;50.848;4.336;2023-04-23T07:52:03;3.27;;;1.43;;
20122;SDS011;10222;50.848;4.336;2023-04-23T07:54:29;1.80;;;1.10;;
20122;SDS011;10222;50.848;4.336;2023-04-23T07:56:55;3.87;;;1.20;;
20122;SDS011;10222;50.848;4.336;2023-04-23T07:59:21;1.60;;;1.30;;
20122;SDS011;10222;50.848;4.336;2023-04-23T08:01:47;3.37;;;1.30;;
20122;SDS011;10222;50.848;4.336;2023-04-23T08:04:13;5.73;;;1.60;;
20122;SDS011;10222;50.848;4.336;2023-04-23T08:06:39;7.20;;;1.40;;
20122;SDS011;10222;50.848;4.336;2023-04-23T08:09:05;2.03;;;1.30;;
20122;SDS011;10222;50.848;4.336;2023-04-23T08:11:36;9.63;;;1.57;;
20122;SDS011;10222;50.848;4.336;2023-04-23T08:14:02;2.97;;;1.37;;
20122;SDS011;10222;50.848;4.336;2023-04-23T08:16:28;7.83;;;1.87;;
20122;SDS011;10222;50.848;4.336;2023-04-23T08:18:55;5.37;;;1.30;;
20122;SDS011;10222;50.848;4.336;2023-04-23T08:21:22;2.77;;;1.00;;
20122;SDS011;10222;50.848;4.336;2023-04-23T08:23:49;8.57;;;1.70;;
20122;SDS011;10222;50.848;4.336;2023-04-23T08:26:15;4.80;;;1.23;;
20122;SDS011;10222;50.848;4.336;2023-04-23T08:28:41;6.00;;;1.40;;
20122;SDS011;10222;50.848;4.336;2023-04-23T08:31:07;3.37;;;1.20;;
20122;SDS011;10222;50.848;4.336;2023-04-23T08:33:35;5.13;;;1.30;;
20122;SDS011;10222;50.848;4.336;2023-04-23T08:36:01;4.10;;;1.00;;
20122;SDS011;10222;50.848;4.336;2023-04-23T08:38:27;2.63;;;1.20;;
20122;SDS011;10222;50.848;4.336;2023-04-23T08:40:56;2.37;;;0.93;;
20122;SDS011;10222;50.848;4.336;2023-04-23T08:43:46;5.00;;;1.60;;
20122;SDS011;10222;50.848;4.336;2023-04-23T08:46:11;1.07;;;0.80;;
20122;SDS011;10222;50.848;4.336;2023-04-23T08:48:39;3.97;;;1.30;;
20122;SDS011;10222;50.848;4.336;2023-04-23T08:51:06;5.20;;;1.10;;
20122;SDS011;10222;50.848;4.336;2023-04-23T08:53:33;2.67;;;0.93;;
20122;SDS011;10222;50.848;4.336;2023-04-23T08:55:59;5.00;;;1.70;;
20122;SDS011;10222;50.848;4.336;2023-04-23T08:58:26;3.00;;;0.80;;
20122;SDS011;10222;50.848;4.336;2023-04-23T09:00:52;5.13;;;1.10;;
20122;SDS011;10222;50.848;4.336;2023-04-23T09:03:18;4.47;;;1.17;;
20122;SDS011;10222;50.848;4.336;2023-04-23T09:05:45;4.70;;;0.80;;
20122;SDS011;10222;50.848;4.336;2023-04-23T09:08:11;4.17;;;1.43;;
20122;SDS011;10222;50.848;4.336;2023-04-23T09:10:39;3.73;;;1.60;;
20122;SDS011;10222;50.848;4.336;2023-04-23T09:13:10;4.67;;;1.70;;
20122;SDS011;10222;50.848;4.336;2023-04-23T09:15:37;4.13;;;0.93;;
20122;SDS011;10222;50.848;4.336;2023-04-23T09:18:07;2.87;;;1.00;;
20122;SDS011;10222;50.848;4.336;2023-04-23T09:20:33;2.40;;;1.07;;
20122;SDS011;10222;50.848;4.336;2023-04-23T09:25:29;3.23;;;1.40;;
20122;SDS011;10222;50.848;4.336;2023-04-23T09:27:56;4.53;;;1.57;;
20122;SDS011;10222;50.848;4.336;2023-04-23T09:30:28;2.93;;;1.27;;
20122;SDS011;10222;50.848;4.336;2023-04-23T09:32:55;5.70;;;1.27;;
20122;SDS011;10222;50.848;4.336;2023-04-23T09:35:21;3.37;;;1.27;;
20122;SDS011;10222;50.848;4.336;2023-04-23T09:37:49;3.83;;;1.80;;
20122;SDS011;10222;50.848;4.336;2023-04-23T09:40:18;2.97;;;0.83;;
20122;SDS011;10222;50.848;4.336;2023-04-23T09:42:48;1.50;;;0.90;;
20122;SDS011;10222;50.848;4.336;2023-04-23T09:45:15;3.80;;;1.60;;
20122;SDS011;10222;50.848;4.336;2023-04-23T09:47:48;2.13;;;1.23;;
20122;SDS011;10222;50.848;4.336;2023-04-23T09:50:17;2.87;;;1.20;;
20122;SDS011;10222;50.848;4.336;2023-04-23T09:52:43;3.00;;;0.90;;
20122;SDS011;10222;50.848;4.336;2023-04-23T09:55:09;5.87;;;1.23;;
20122;SDS011;10222;50.848;4.336;2023-04-23T09:57:36;3.20;;;0.87;;
20122;SDS011;10222;50.848;4.336;2023-04-23T10:00:12;4.63;;;1.30;;
20122;SDS011;10222;50.848;4.336;2023-04-23T10:02:44;7.83;;;1.50;;
20122;SDS011;10222;50.848;4.336;2023-04-23T10:05:18;5.13;;;1.27;;
20122;SDS011;10222;50.848;4.336;2023-04-23T10:07:45;2.97;;;1.30;;
20122;SDS011;10222;50.848;4.336;2023-04-23T10:10:17;3.90;;;1.40;;
20122;SDS011;10222;50.848;4.336;2023-04-23T10:12:43;3.87;;;1.40;;
20122;SDS011;10222;50.848;4.336;2023-04-23T10:15:10;2.57;;;0.80;;
20122;SDS011;10222;50.848;4.336;2023-04-23T10:17:36;2.83;;;0.80;;
20122;SDS011;10222;50.848;4.336;2023-04-23T10:20:03;4.03;;;0.90;;
20122;SDS011;10222;50.848;4.336;2023-04-23T10:22:32;4.50;;;1.10;;
20122;SDS011;10222;50.848;4.336;2023-04-23T10:25:00;2.70;;;0.70;;
20122;SDS011;10222;50.848;4.336;2023-04-23T10:27:31;6.20;;;1.17;;
20122;SDS011;10222;50.848;4.336;2023-04-23T10:29:58;2.47;;;1.20;;
20122;SDS011;10222;50.848;4.336;2023-04-23T10:32:27;1.30;;;0.53;;
20122;SDS011;10222;50.848;4.336;2023-04-23T10:34:53;3.57;;;0.63;;
20122;SDS011;10222;50.848;4.336;2023-04-23T10:37:19;5.03;;;1.70;;
20122;SDS011;10222;50.848;4.336;2023-04-23T10:39:53;2.73;;;0.90;;
20122;SDS011;10222;50.848;4.336;2023-04-23T10:42:19;4.73;;;1.20;;
20122;SDS011;10222;50.848;4.336;2023-04-23T10:44:46;2.97;;;1.00;;
20122;SDS011;10222;50.848;4.336;2023-04-23T10:47:18;4.50;;;0.60;;
20122;SDS011;10222;50.848;4.336;2023-04-23T10:49:46;5.00;;;1.03;;
20122;SDS011;10222;50.848;4.336;2023-04-23T10:52:13;4.93;;;1.40;;
20122;SDS011;10222;50.848;4.336;2023-04-23T10:54:46;5.70;;;1.37;;
20122;SDS011;10222;50.848;4.336;2023-04-23T10:57:13;5.37;;;1.13;;
20122;SDS011;10222;50.848;4.336;2023-04-23T10:59:50;6.20;;;1.13;;
20122;SDS011;10222;50.848;4.336;2023-04-23T11:02:17;4.30;;;0.80;;
20122;SDS011;10222;50.848;4.336;2023-04-23T11:04:45;6.43;;;1.30;;
20122;SDS011;10222;50.848;4.336;2023-04-23T11:07:13;2.40;;;0.80;;
20122;SDS011;10222;50.848;4.336;2023-04-23T11:09:42;3.53;;;1.70;;
20122;SDS011;10222;50.848;4.336;2023-04-23T11:12:13;1.60;;;0.87;;
20122;SDS011;10222;50.848;4.336;2023-04-23T11:14:55;5.33;;;1.17;;
20122;SDS011;10222;50.848;4.336;2023-04-23T11:20:09;3.17;;;1.60;;
20122;SDS011;10222;50.848;4.336;2023-04-23T11:22:40;4.60;;;1.33;;
20122;SDS011;10222;50.848;4.336;2023-04-23T11:25:08;1.13;;;0.67;;
20122;SDS011;10222;50.848;4.336;2023-04-23T11:27:37;2.07;;;0.73;;
20122;SDS011;10222;50.848;4.336;2023-04-23T11:30:04;1.50;;;0.50;;
20122;SDS011;10222;50.848;4.336;2023-04-23T11:32:31;3.37;;;1.07;;
20122;SDS011;10222;50.848;4.336;2023-04-23T11:34:57;2.87;;;0.90;;
20122;SDS011;10222;50.848;4.336;2023-04-23T11:37:25;3.70;;;1.10;;
20122;SDS011;10222;50.848;4.336;2023-04-23T11:39:51;2.37;;;0.70;;
20122;SDS011;10222;50.848;4.336;2023-04-23T11:42:17;3.13;;;0.73;;
20122;SDS011;10222;50.848;4.336;2023-04-23T11:44:47;2.67;;;0.73;;
20122;SDS011;10222;50.848;4.336;2023-04-23T11:47:14;1.93;;;0.77;;
20122;SDS011;10222;50.848;4.336;2023-04-23T11:49:41;3.90;;;0.60;;
20122;SDS011;10222;50.848;4.336;2023-04-23T11:52:08;0.80;;;0.60;;
20122;SDS011;10222;50.848;4.336;2023-04-23T11:54:34;3.13;;;1.67;;
20122;SDS011;10222;50.848;4.336;2023-04-23T11:57:00;3.17;;;1.13;;
20122;SDS011;10222;50.848;4.336;2023-04-23T11:59:28;3.80;;;1.53;;
20122;SDS011;10222;50.848;4.336;2023-04-23T12:01:55;2.03;;;1.00;;
20122;SDS011;10222;50.848;4.336;2023-04-23T12:04:25;4.97;;;1.20;;
20122;SDS011;10222;50.848;4.336;2023-04-23T12:06:52;5.13;;;1.10;;
20122;SDS011;10222;50.848;4.336;2023-04-23T12:09:19;2.90;;;0.80;;
20122;SDS011;10222;50.848;4.336;2023-04-23T12:11:45;1.80;;;0.90;;
20122;SDS011;10222;50.848;4.336;2023-04-23T12:14:12;5.33;;;1.60;;
20122;SDS011;10222;50.848;4.336;2023-04-23T12:16:42;4.10;;;1.77;;
20122;SDS011;10222;50.848;4.336;2023-04-23T12:19:12;6.60;;;2.10;;
20122;SDS011;10222;50.848;4.336;2023-04-23T12:21:51;6.93;;;1.90;;
20122;SDS011;10222;50.848;4.336;2023-04-23T12:24:19;5.80;;;1.73;;
20122;SDS011;10222;50.848;4.336;2023-04-23T12:26:48;3.90;;;1.70;;
20122;SDS011;10222;50.848;4.336;2023-04-23T12:29:16;6.60;;;2.23;;
20122;SDS011;10222;50.848;4.336;2023-04-23T12:31:43;2.57;;;1.43;;
20122;SDS011;10222;50.848;4.336;2023-04-23T12:34:09;5.33;;;1.47;;
20122;SDS011;10222;50.848;4.336;2023-04-23T12:36:38;3.60;;;0.97;;
20122;SDS011;10222;50.848;4.336;2023-04-23T12:41:54;4.67;;;2.03;;
20122;SDS011;10222;50.848;4.336;2023-04-23T12:44:23;6.93;;;3.37;;
20122;SDS011;10222;50.848;4.336;2023-04-23T12:46:57;5.37;;;2.20;;
20122;SDS011;10222;50.848;4.336;2023-04-23T12:51:54;6.93;;;2.40;;
20122;SDS011;10222;50.848;4.336;2023-04-23T12:54:27;3.40;;;1.67;;
20122;SDS011;10222;50.848;4.336;2023-04-23T12:56:54;3.93;;;2.10;;
20122;SDS011;10222;50.848;4.336;2023-04-23T12:59:21;8.97;;;3.53;;
20122;SDS011;10222;50.848;4.336;2023-04-23T13:01:47;7.13;;;3.10;;
20122;SDS011;10222;50.848;4.336;2023-04-23T13:04:14;8.37;;;4.07;;
20122;SDS011;10222;50.848;4.336;2023-04-23T13:06:40;14.07;;;4.83;;
20122;SDS011;10222;50.848;4.336;2023-04-23T13:09:07;7.80;;;3.23;;
20122;SDS011;10222;50.848;4.336;2023-04-23T13:11:36;6.73;;;2.40;;
20122;SDS011;10222;50.848;4.336;2023-04-23T13:14:03;7.53;;;2.30;;
20122;SDS011;10222;50.848;4.336;2023-04-23T13:16:29;3.97;;;2.03;;
20122;SDS011;10222;50.848;4.336;2023-04-23T13:18:56;2.63;;;1.40;;
20122;SDS011;10222;50.848;4.336;2023-04-23T13:21:23;4.70;;;1.30;;
20122;SDS011;10222;50.848;4.336;2023-04-23T13:23:50;2.73;;;1.40;;
20122;SDS011;10222;50.848;4.336;2023-04-23T13:26:17;3.50;;;1.80;;
20122;SDS011;10222;50.848;4.336;2023-04-23T13:28:44;3.67;;;1.40;;
20122;SDS011;10222;50.848;4.336;2023-04-23T13:31:10;6.80;;;2.47;;
20122;SDS011;10222;50.848;4.336;2023-04-23T13:33:39;9.30;;;4.37;;
20122;SDS011;10222;50.848;4.336;2023-04-23T13:36:11;5.47;;;2.27;;
20122;SDS011;10222;50.848;4.336;2023-04-23T13:38:39;7.80;;;2.87;;
20122;SDS011;10222;50.848;4.336;2023-04-23T13:41:06;7.40;;;2.80;;
20122;SDS011;10222;50.848;4.336;2023-04-23T13:43:32;6.70;;;3.40;;
20122;SDS011;10222;50.848;4.336;2023-04-23T13:46:00;7.87;;;3.80;;
20122;SDS011;10222;50.848;4.336;2023-04-23T13:48:26;5.23;;;2.70;;
20122;SDS011;10222;50.848;4.336;2023-04-23T13:50:55;4.70;;;2.50;;
20122;SDS011;10222;50.848;4.336;2023-04-23T13:53:23;9.23;;;4.70;;
20122;SDS011;10222;50.848;4.336;2023-04-23T13:55:50;7.03;;;4.03;;
20122;SDS011;10222;50.848;4.336;2023-04-23T13:58:17;6.70;;;3.40;;
20122;SDS011;10222;50.848;4.336;2023-04-23T14:00:43;8.70;;;3.03;;
20122;SDS011;10222;50.848;4.336;2023-04-23T14:03:09;16.73;;;5.50;;
20122;SDS011;10222;50.848;4.336;2023-04-23T14:05:36;7.40;;;3.20;;
20122;SDS011;10222;50.848;4.336;2023-04-23T14:08:02;6.63;;;2.30;;
20122;SDS011;10222;50.848;4.336;2023-04-23T14:10:30;3.73;;;1.47;;
20122;SDS011;10222;50.848;4.336;2023-04-23T14:13:01;2.27;;;1.13;;
20122;SDS011;10222;50.848;4.336;2023-04-23T14:15:30;2.47;;;1.07;;
20122;SDS011;10222;50.848;4.336;2023-04-23T14:17:57;3.23;;;0.70;;
20122;SDS011;10222;50.848;4.336;2023-04-23T14:20:24;2.97;;;1.57;;
20122;SDS011;10222;50.848;4.336;2023-04-23T14:22:55;2.10;;;1.00;;
20122;SDS011;10222;50.848;4.336;2023-04-23T14:25:35;1.87;;;1.30;;
20122;SDS011;10222;50.848;4.336;2023-04-23T14:30:52;1.83;;;1.17;;
20122;SDS011;10222;50.848;4.336;2023-04-23T14:33:19;2.70;;;1.17;;
20122;SDS011;10222;50.848;4.336;2023-04-23T14:35:45;2.03;;;0.97;;
20122;SDS011;10222;50.848;4.336;2023-04-23T14:38:14;1.90;;;0.97;;
20122;SDS011;10222;50.848;4.336;2023-04-23T14:40:41;6.57;;;2.90;;
20122;SDS011;10222;50.848;4.336;2023-04-23T14:43:09;5.10;;;2.03;;
20122;SDS011;10222;50.848;4.336;2023-04-23T14:45:35;3.83;;;1.60;;
20122;SDS011;10222;50.848;4.336;2023-04-23T14:48:02;3.13;;;1.20;;
20122;SDS011;10222;50.848;4.336;2023-04-23T14:50:28;1.00;;;0.80;;
20122;SDS011;10222;50.848;4.336;2023-04-23T14:52:56;2.30;;;1.23;;
20122;SDS011;10222;50.848;4.336;2023-04-23T14:55:23;1.50;;;1.00;;
20122;SDS011;10222;50.848;4.336;2023-04-23T14:57:49;3.40;;;1.70;;
20122;SDS011;10222;50.848;4.336;2023-04-23T15:00:15;5.88;;;2.67;;
20122;SDS011;10222;50.848;4.336;2023-04-23T15:02:42;4.80;;;1.90;;